createdAt,value
2023-03-14T00:01:14.766Z,-4.55
2023-03-14T00:03:42.289Z,-4.52
2023-03-14T00:06:12.170Z,-4.48
2023-03-14T00:08:39.695Z,-4.50
2023-03-14T00:11:08.911Z,-4.49
2023-03-14T00:13:36.132Z,-4.44
2023-03-14T00:16:05.098Z,-4.43
2023-03-14T00:18:32.880Z,-4.39
2023-03-14T00:21:00.942Z,-4.37
2023-03-14T00:23:31.123Z,-4.36
2023-03-14T00:26:00.884Z,-4.34
2023-03-14T00:28:28.557Z,-4.30
2023-03-14T00:30:56.745Z,-4.29
2023-03-14T00:33:24.309Z,-4.26
2023-03-14T00:35:55.951Z,-4.23
2023-03-14T00:38:23.669Z,-4.11
2023-03-14T00:40:52.838Z,-4.09
2023-03-14T00:43:22.683Z,-4.04
2023-03-14T00:45:50.297Z,-4.03
2023-03-14T00:48:17.746Z,-3.96
2023-03-14T00:50:45.071Z,-3.96
2023-03-14T00:53:12.381Z,-3.99
2023-03-14T00:55:40.472Z,-3.93
2023-03-14T00:58:09.520Z,-3.95
2023-03-14T01:00:37.427Z,-3.92
2023-03-14T01:03:05.486Z,-3.96
2023-03-14T01:05:33.149Z,-3.92
2023-03-14T01:08:00.684Z,-3.92
2023-03-14T01:10:28.367Z,-3.84
2023-03-14T01:12:55.978Z,-3.80
2023-03-14T01:15:24.736Z,-3.76
2023-03-14T01:17:52.041Z,-3.75
2023-03-14T01:20:19.453Z,-3.74
2023-03-14T01:22:46.811Z,-3.73
2023-03-14T01:25:17.380Z,-3.77
2023-03-14T01:27:45.953Z,-3.72
2023-03-14T01:30:14.434Z,-3.74
2023-03-14T01:32:43.432Z,-3.69
2023-03-14T01:35:11.102Z,-3.69
2023-03-14T01:37:38.953Z,-3.65
2023-03-14T01:40:12.115Z,-3.65
2023-03-14T01:42:46.395Z,-3.55
2023-03-14T01:45:46.634Z,-3.55
2023-03-14T01:48:15.685Z,-3.53
2023-03-14T01:50:43.497Z,-3.51
2023-03-14T01:53:11.046Z,-3.50
2023-03-14T01:55:38.429Z,-3.48
2023-03-14T01:58:06.682Z,-3.50
2023-03-14T02:00:34.123Z,-3.48
2023-03-14T02:03:06.476Z,-3.49
2023-03-14T02:05:39.286Z,-3.49
2023-03-14T02:08:14.812Z,-3.51
2023-03-14T02:10:51.411Z,-3.48
2023-03-14T02:13:27.743Z,-3.44
2023-03-14T02:15:55.118Z,-3.41
2023-03-14T02:18:47.008Z,-3.38
2023-03-14T02:21:44.985Z,-3.42
2023-03-14T02:24:21.515Z,-3.41
2023-03-14T02:27:08.905Z,-3.35
2023-03-14T02:29:45.061Z,-3.34
2023-03-14T02:32:13.867Z,-3.27
2023-03-14T02:34:43.486Z,-3.26
2023-03-14T02:37:12.508Z,-3.26
2023-03-14T02:39:43.872Z,-3.24
2023-03-14T02:42:13.292Z,-3.15
2023-03-14T02:44:51.554Z,-3.19
2023-03-14T02:47:21.666Z,-3.20
2023-03-14T02:49:49.443Z,-3.18
2023-03-14T02:52:16.624Z,-3.14
2023-03-14T02:54:44.373Z,-3.12
2023-03-14T02:57:13.019Z,-3.07
2023-03-14T02:59:40.376Z,-3.05
2023-03-14T03:02:13.751Z,-2.98
2023-03-14T03:04:41.038Z,-2.97
2023-03-14T03:07:08.389Z,-2.94
2023-03-14T03:09:35.752Z,-2.82
2023-03-14T03:12:03.078Z,-2.81
2023-03-14T03:14:32.424Z,-2.79
2023-03-14T03:17:03.688Z,-2.76
2023-03-14T03:19:32.231Z,-2.74
2023-03-14T03:21:59.832Z,-2.71
2023-03-14T03:24:27.666Z,-2.67
2023-03-14T03:26:55.952Z,-2.63
2023-03-14T03:29:23.417Z,-2.60
2023-03-14T03:31:52.925Z,-2.54
2023-03-14T03:34:21.036Z,-2.53
2023-03-14T03:36:51.855Z,-2.45
2023-03-14T03:39:19.152Z,-2.39
2023-03-14T03:41:48.796Z,-2.30
2023-03-14T03:44:16.056Z,-2.28
2023-03-14T03:46:43.640Z,-2.22
2023-03-14T03:49:12.366Z,-2.20
2023-03-14T03:51:40.948Z,-2.17
2023-03-14T03:54:08.241Z,-2.11
2023-03-14T03:56:35.582Z,-2.02
2023-03-14T03:59:03.117Z,-1.99
2023-03-14T04:01:30.631Z,-1.94
2023-03-14T04:04:00.231Z,-1.89
2023-03-14T04:06:30.344Z,-1.84
2023-03-14T04:09:00.120Z,-1.83
2023-03-14T04:11:47.657Z,-1.77
2023-03-14T04:14:20.535Z,-1.73
2023-03-14T04:16:49.267Z,-1.65
2023-03-14T04:19:20.098Z,-1.57
2023-03-14T04:21:49.520Z,-1.55
2023-03-14T04:24:16.853Z,-1.46
2023-03-14T04:26:47.771Z,-1.42
2023-03-14T04:29:34.193Z,-1.36
2023-03-14T04:32:01.570Z,-1.24
2023-03-14T04:34:28.995Z,-1.22
2023-03-14T04:36:59.199Z,-1.21
2023-03-14T04:39:35.545Z,-1.15
2023-03-14T04:42:23.163Z,-1.18
2023-03-14T04:44:51.191Z,-1.09
2023-03-14T04:47:22.296Z,-1.06
2023-03-14T04:49:51.106Z,-1.01
2023-03-14T04:52:20.550Z,-0.99
2023-03-14T04:54:48.405Z,-0.98
2023-03-14T04:57:15.903Z,-0.95
2023-03-14T04:59:43.818Z,-0.88
2023-03-14T05:02:24.523Z,-0.88
2023-03-14T05:05:08.713Z,-0.75
2023-03-14T05:08:09.843Z,-0.74
2023-03-14T05:10:59.021Z,-0.67
2023-03-14T05:13:52.431Z,-0.62
2023-03-14T05:16:48.935Z,-0.55
2023-03-14T05:19:36.095Z,-0.52
2023-03-14T05:22:03.549Z,-0.43
2023-03-14T05:24:50.562Z,-0.36
2023-03-14T05:27:38.351Z,-0.37
2023-03-14T05:30:33.458Z,-0.35
2023-03-14T05:33:20.536Z,-0.32
2023-03-14T05:35:53.759Z,-0.26
2023-03-14T05:38:59.652Z,-0.23
2023-03-14T05:41:40.581Z,-0.18
2023-03-14T05:44:31.068Z,-0.05
2023-03-14T05:47:16.716Z,0.05
2023-03-14T05:49:43.965Z,0.11
2023-03-14T05:52:31.643Z,0.22
2023-03-14T05:55:31.320Z,0.30
2023-03-14T05:58:20.142Z,0.40
2023-03-14T06:01:10.883Z,0.39
2023-03-14T06:03:54.367Z,0.48
2023-03-14T06:06:22.023Z,0.47
2023-03-14T06:08:49.509Z,0.54
2023-03-14T06:11:17.436Z,0.53
2023-03-14T06:13:47.374Z,0.55
2023-03-14T06:16:15.551Z,0.75
2023-03-14T06:18:43.464Z,0.68
2023-03-14T06:21:13.181Z,0.74
2023-03-14T06:23:40.457Z,0.74
2023-03-14T06:26:08.248Z,0.78
2023-03-14T06:28:35.559Z,0.83
2023-03-14T06:31:07.080Z,0.82
2023-03-14T06:33:42.023Z,0.81
2023-03-14T06:36:10.371Z,0.87
2023-03-14T06:38:39.835Z,0.96
2023-03-14T06:41:08.705Z,1.02
2023-03-14T06:43:40.251Z,1.12
2023-03-14T06:46:10.517Z,1.07
2023-03-14T06:48:40.191Z,1.07
2023-03-14T06:51:08.600Z,1.21
2023-03-14T06:53:35.858Z,1.16
2023-03-14T06:56:04.175Z,1.24
2023-03-14T06:58:33.493Z,1.20
2023-03-14T07:01:01.987Z,1.25
2023-03-14T07:03:36.732Z,1.26
2023-03-14T07:06:06.746Z,1.42
2023-03-14T07:08:34.368Z,1.43
2023-03-14T07:11:02.451Z,1.52
2023-03-14T07:13:29.877Z,1.58
2023-03-14T07:16:02.385Z,1.64
2023-03-14T07:18:30.138Z,1.67
2023-03-14T07:20:59.161Z,1.79
2023-03-14T07:23:26.493Z,1.80
2023-03-14T07:25:55.114Z,1.91
2023-03-14T07:28:25.648Z,1.99
2023-03-14T07:30:59.657Z,2.10
2023-03-14T07:33:31.620Z,2.10
2023-03-14T07:36:00.504Z,2.16
2023-03-14T07:38:28.434Z,2.14
2023-03-14T07:41:24.677Z,2.15
2023-03-14T07:44:10.646Z,2.16
2023-03-14T07:46:38.500Z,2.21
2023-03-14T07:49:05.814Z,2.25
2023-03-14T07:51:34.530Z,2.28
2023-03-14T07:54:02.131Z,2.36
2023-03-14T07:56:29.527Z,2.36
2023-03-14T07:58:57.604Z,2.52
2023-03-14T08:01:25.035Z,2.50
2023-03-14T08:03:52.351Z,2.61
2023-03-14T08:06:19.891Z,2.54
2023-03-14T08:08:48.600Z,2.56
2023-03-14T08:11:15.924Z,2.59
2023-03-14T08:13:43.369Z,2.66
2023-03-14T08:16:11.058Z,2.66
2023-03-14T08:18:38.323Z,2.76
2023-03-14T08:21:06.084Z,2.81
2023-03-14T08:23:33.574Z,2.86
2023-03-14T08:26:03.125Z,2.83
2023-03-14T08:28:31.793Z,2.84
2023-03-14T08:30:59.259Z,2.95
2023-03-14T08:33:27.018Z,3.00
2023-03-14T08:35:54.723Z,3.11
2023-03-14T08:38:22.012Z,3.21
2023-03-14T08:40:50.341Z,3.26
2023-03-14T08:43:18.935Z,3.24
2023-03-14T08:45:46.155Z,3.30
2023-03-14T08:48:13.419Z,3.23
2023-03-14T08:50:40.863Z,3.32
2023-03-14T08:53:08.356Z,3.32
2023-03-14T08:55:35.959Z,3.35
2023-03-14T08:58:03.492Z,3.37
2023-03-14T09:00:32.231Z,3.44
2023-03-14T09:02:59.631Z,3.36
2023-03-14T09:05:27.153Z,3.36
2023-03-14T09:07:54.499Z,3.46
2023-03-14T09:10:22.048Z,3.52
2023-03-14T09:12:49.285Z,3.52
2023-03-14T09:15:16.644Z,3.51
2023-03-14T09:17:45.705Z,3.59
2023-03-14T09:20:13.606Z,3.69
2023-03-14T09:22:40.908Z,3.69
2023-03-14T09:25:09.122Z,3.60
2023-03-14T09:27:36.282Z,3.58
2023-03-14T09:30:04.199Z,3.51
2023-03-14T09:32:32.819Z,3.56
2023-03-14T09:35:01.880Z,3.59
2023-03-14T09:37:30.549Z,3.67
2023-03-14T09:39:57.752Z,3.75
2023-03-14T09:42:28.915Z,3.60
2023-03-14T09:44:58.635Z,3.63
2023-03-14T09:47:27.784Z,3.43
2023-03-14T09:49:55.288Z,3.42
2023-03-14T09:52:27.990Z,3.55
2023-03-14T09:54:57.323Z,3.58
2023-03-14T09:57:26.285Z,3.61
2023-03-14T09:59:57.599Z,3.69
2023-03-14T10:02:26.320Z,3.82
2023-03-14T10:04:55.469Z,3.84
2023-03-14T10:07:30.024Z,3.89
2023-03-14T10:09:58.001Z,4.09
2023-03-14T10:12:33.838Z,4.15
2023-03-14T10:15:06.316Z,4.17
2023-03-14T10:17:41.144Z,4.29
2023-03-14T10:20:28.817Z,4.24
2023-03-14T10:22:57.645Z,4.42
2023-03-14T10:25:28.575Z,4.44
2023-03-14T10:27:55.810Z,4.48
2023-03-14T10:30:36.239Z,4.46
2023-03-14T10:33:11.069Z,4.50
2023-03-14T10:35:38.584Z,4.44
2023-03-14T10:38:14.440Z,4.38
2023-03-14T10:40:50.075Z,4.38
2023-03-14T10:43:22.730Z,4.29
2023-03-14T10:45:53.643Z,4.38
2023-03-14T10:48:23.803Z,4.39
2023-03-14T10:50:56.978Z,4.42
2023-03-14T10:53:27.754Z,4.44
2023-03-14T10:55:58.073Z,4.48
2023-03-14T10:58:27.608Z,4.52
2023-03-14T11:01:04.857Z,4.60
2023-03-14T11:03:35.186Z,4.66
2023-03-14T11:06:09.738Z,4.72
2023-03-14T11:08:47.541Z,4.68
2023-03-14T11:11:20.463Z,4.74
2023-03-14T11:14:00.021Z,4.79
2023-03-14T11:16:35.553Z,4.83
2023-03-14T11:19:29.768Z,4.94
2023-03-14T11:22:06.137Z,5.00
2023-03-14T11:24:54.684Z,5.06
2023-03-14T11:27:26.574Z,5.10
2023-03-14T11:30:01.354Z,5.27
2023-03-14T11:32:43.030Z,5.24
2023-03-14T11:35:19.058Z,5.34
2023-03-14T11:37:52.930Z,5.40
2023-03-14T11:40:24.780Z,5.50
2023-03-14T11:43:00.677Z,5.53
2023-03-14T11:45:33.951Z,5.56
2023-03-14T11:48:16.017Z,5.56
2023-03-14T11:50:45.334Z,5.57
2023-03-14T11:53:18.122Z,5.62
2023-03-14T11:55:48.211Z,5.67
2023-03-14T11:58:20.868Z,5.70
2023-03-14T12:00:51.543Z,5.80
2023-03-14T12:03:27.725Z,5.84
2023-03-14T12:06:06.897Z,5.87
2023-03-14T12:08:46.159Z,5.94
2023-03-14T12:11:22.983Z,5.81
2023-03-14T12:13:52.607Z,5.86
2023-03-14T12:16:38.502Z,5.88
2023-03-14T12:19:36.809Z,5.86
2023-03-14T12:22:28.493Z,5.95
2023-03-14T12:25:00.380Z,5.89
2023-03-14T12:27:50.818Z,6.01
2023-03-14T12:30:28.457Z,5.99
2023-03-14T12:33:32.246Z,6.04
2023-03-14T12:36:06.016Z,6.00
2023-03-14T12:38:49.491Z,5.99
2023-03-14T12:41:21.160Z,5.90
2023-03-14T12:43:50.304Z,5.91
2023-03-14T12:46:24.048Z,5.97
2023-03-14T12:48:55.785Z,5.91
2023-03-14T12:51:30.874Z,5.84
2023-03-14T12:54:19.158Z,5.74
2023-03-14T12:56:58.969Z,5.69
2023-03-14T12:59:35.659Z,5.76
2023-03-14T13:02:24.608Z,5.62
2023-03-14T13:04:55.132Z,5.56
2023-03-14T13:07:37.657Z,5.54
2023-03-14T13:10:22.285Z,5.44
2023-03-14T13:12:53.530Z,5.47
2023-03-14T13:15:32.586Z,5.36
2023-03-14T13:18:04.080Z,5.45
2023-03-14T13:20:36.651Z,5.50
2023-03-14T13:23:04.897Z,5.48
2023-03-14T13:25:35.166Z,5.46
2023-03-14T13:28:03.870Z,5.37
2023-03-14T13:30:40.635Z,5.30
2023-03-14T13:33:08.077Z,5.29
2023-03-14T13:35:41.805Z,5.30
2023-03-14T13:38:18.535Z,5.26
2023-03-14T13:40:47.898Z,5.12
2023-03-14T13:43:19.158Z,5.18
2023-03-14T13:45:51.975Z,5.17
2023-03-14T13:48:20.376Z,5.16
2023-03-14T13:50:52.776Z,5.22
2023-03-14T13:53:20.384Z,5.22
2023-03-14T13:55:47.808Z,5.27
2023-03-14T13:58:22.668Z,5.12
2023-03-14T14:01:01.442Z,5.16
2023-03-14T14:03:31.476Z,5.17
2023-03-14T14:06:00.893Z,5.14
2023-03-14T14:08:31.658Z,5.20
2023-03-14T14:11:02.289Z,5.20
2023-03-14T14:13:36.730Z,5.18
2023-03-14T14:16:06.641Z,5.18
2023-03-14T14:18:35.670Z,5.10
2023-03-14T14:21:04.033Z,5.01
2023-03-14T14:23:32.803Z,5.06
2023-03-14T14:26:00.824Z,5.05
2023-03-14T14:28:30.714Z,5.02
2023-03-14T14:31:04.865Z,5.12
2023-03-14T14:33:41.969Z,5.03
2023-03-14T14:36:19.827Z,4.98
2023-03-14T14:38:59.874Z,4.92
2023-03-14T14:41:36.698Z,4.98
2023-03-14T14:44:05.459Z,4.87
2023-03-14T14:46:37.134Z,4.93
2023-03-14T14:49:10.103Z,4.99
2023-03-14T14:51:43.298Z,4.93
2023-03-14T14:54:16.131Z,4.86
2023-03-14T14:56:49.718Z,4.79
2023-03-14T14:59:23.252Z,4.69
2023-03-14T15:01:52.271Z,4.80
2023-03-14T15:04:21.121Z,4.78
2023-03-14T15:06:51.210Z,4.73
2023-03-14T15:09:18.833Z,4.69
2023-03-14T15:11:46.112Z,4.71
2023-03-14T15:14:13.403Z,4.65
2023-03-14T15:16:41.932Z,4.70
2023-03-14T15:19:24.245Z,4.67
2023-03-14T15:21:54.526Z,4.68
2023-03-14T15:24:22.235Z,4.71
2023-03-14T15:26:49.560Z,4.70
2023-03-14T15:29:17.746Z,4.84
2023-03-14T15:31:45.394Z,4.79
2023-03-14T15:34:12.911Z,4.72
2023-03-14T15:36:41.331Z,4.66
2023-03-14T15:39:12.254Z,4.64
2023-03-14T15:41:40.001Z,4.66
2023-03-14T15:44:07.443Z,4.64
2023-03-14T15:46:34.594Z,4.58
2023-03-14T15:49:01.810Z,4.65
2023-03-14T15:51:29.543Z,4.63
2023-03-14T15:53:57.050Z,4.60
2023-03-14T15:56:27.489Z,4.57
2023-03-14T15:58:57.410Z,4.69
2023-03-14T16:01:25.464Z,4.63
2023-03-14T16:03:53.813Z,4.60
2023-03-14T16:06:21.637Z,4.64
2023-03-14T16:08:49.016Z,4.56
2023-03-14T16:11:20.878Z,4.60
2023-03-14T16:13:50.098Z,4.58
2023-03-14T16:16:17.424Z,4.44
2023-03-14T16:18:44.757Z,4.39
2023-03-14T16:21:13.506Z,4.36
2023-03-14T16:23:41.409Z,4.40
2023-03-14T16:26:11.243Z,4.30
2023-03-14T16:28:38.744Z,4.32
2023-03-14T16:31:09.486Z,4.26
2023-03-14T16:33:37.946Z,4.40
2023-03-14T16:36:08.939Z,4.31
2023-03-14T16:38:37.860Z,4.31
2023-03-14T16:41:06.827Z,4.33
2023-03-14T16:43:37.348Z,4.22
2023-03-14T16:46:06.025Z,4.22
2023-03-14T16:48:35.260Z,4.22
2023-03-14T16:51:02.386Z,4.15
2023-03-14T16:53:30.440Z,4.20
2023-03-14T16:55:59.746Z,4.15
2023-03-14T16:58:27.508Z,4.18
2023-03-14T17:00:58.002Z,4.16
2023-03-14T17:03:28.029Z,4.21
2023-03-14T17:05:56.849Z,4.16
2023-03-14T17:08:24.310Z,4.20
2023-03-14T17:10:52.048Z,4.12
2023-03-14T17:13:25.557Z,4.16
2023-03-14T17:15:55.101Z,4.12
2023-03-14T17:18:22.653Z,4.08
2023-03-14T17:20:50.823Z,4.19
2023-03-14T17:23:19.681Z,4.08
2023-03-14T17:25:47.746Z,4.04
2023-03-14T17:28:15.163Z,4.03
2023-03-14T17:30:42.661Z,3.99
2023-03-14T17:33:10.059Z,4.00
2023-03-14T17:35:37.616Z,4.06
2023-03-14T17:38:05.351Z,4.03
2023-03-14T17:40:34.114Z,3.92
2023-03-14T17:43:01.376Z,3.91
2023-03-14T17:45:28.975Z,3.89
2023-03-14T17:47:56.264Z,3.94
2023-03-14T17:50:23.684Z,3.95
2023-03-14T17:52:51.341Z,3.93
2023-03-14T17:55:18.731Z,3.93
2023-03-14T17:57:47.406Z,3.94
2023-03-14T18:00:15.551Z,3.92
2023-03-14T18:02:43.229Z,3.92
2023-03-14T18:05:10.653Z,3.89
2023-03-14T18:07:38.715Z,3.95
2023-03-14T18:10:07.000Z,3.96
2023-03-14T18:12:34.376Z,3.97
2023-03-14T18:15:04.277Z,4.02
2023-03-14T18:17:31.780Z,4.05
2023-03-14T18:19:59.371Z,4.03
2023-03-14T18:22:26.793Z,3.97
2023-03-14T18:24:54.468Z,3.86
2023-03-14T18:27:21.719Z,3.89
2023-03-14T18:29:48.997Z,3.85
2023-03-14T18:32:18.173Z,3.87
2023-03-14T18:34:45.859Z,3.83
2023-03-14T18:37:13.271Z,3.88
2023-03-14T18:39:40.780Z,3.93
2023-03-14T18:42:08.098Z,3.87
2023-03-14T18:44:35.345Z,3.88
2023-03-14T18:47:02.813Z,3.88
2023-03-14T18:49:34.962Z,3.86
2023-03-14T18:52:03.234Z,3.81
2023-03-14T18:54:30.725Z,3.79
2023-03-14T18:57:00.245Z,3.78
2023-03-14T18:59:27.566Z,3.78
2023-03-14T19:01:54.899Z,3.78
2023-03-14T19:04:22.175Z,3.76
2023-03-14T19:06:54.148Z,3.73
2023-03-14T19:09:21.530Z,3.73
2023-03-14T19:11:48.959Z,3.72
2023-03-14T19:14:17.839Z,3.74
2023-03-14T19:16:45.372Z,3.76
2023-03-14T19:19:13.122Z,3.78
2023-03-14T19:21:40.497Z,3.82
2023-03-14T19:24:09.525Z,3.80
2023-03-14T19:26:38.311Z,3.77
2023-03-14T19:29:06.422Z,3.82
2023-03-14T19:31:33.827Z,3.76
2023-03-14T19:34:01.152Z,3.78
2023-03-14T19:36:30.510Z,3.84
2023-03-14T19:39:00.061Z,3.73
2023-03-14T19:41:31.654Z,3.76
2023-03-14T19:43:59.274Z,3.79
2023-03-14T19:46:26.776Z,3.80
2023-03-14T19:48:54.411Z,3.79
2023-03-14T19:51:23.046Z,3.79
2023-03-14T19:53:50.498Z,3.86
2023-03-14T19:56:21.980Z,3.81
2023-03-14T19:58:50.666Z,3.81
2023-03-14T20:01:18.020Z,3.90
2023-03-14T20:03:45.346Z,3.93
2023-03-14T20:06:13.279Z,3.96
2023-03-14T20:08:41.303Z,3.93
2023-03-14T20:11:08.969Z,3.91
2023-03-14T20:13:36.296Z,3.91
2023-03-14T20:16:06.175Z,3.90
2023-03-14T20:18:33.621Z,3.95
2023-03-14T20:21:02.012Z,3.91
2023-03-14T20:23:30.858Z,3.97
2023-03-14T20:25:59.687Z,3.89
2023-03-14T20:28:27.060Z,3.88
2023-03-14T20:30:54.933Z,3.96
2023-03-14T20:33:24.657Z,3.92
2023-03-14T20:35:56.116Z,3.90
2023-03-14T20:38:24.450Z,4.00
2023-03-14T20:40:51.589Z,3.95
2023-03-14T20:43:19.434Z,4.00
2023-03-14T20:45:52.770Z,3.96
2023-03-14T20:48:20.128Z,3.91
2023-03-14T20:50:49.321Z,3.96
2023-03-14T20:53:17.046Z,3.87
2023-03-14T20:55:44.964Z,3.84
2023-03-14T20:58:13.326Z,3.94
2023-03-14T21:00:40.914Z,3.92
2023-03-14T21:03:10.875Z,3.89
2023-03-14T21:05:41.747Z,3.82
2023-03-14T21:08:12.062Z,3.84
2023-03-14T21:10:39.645Z,3.80
2023-03-14T21:13:07.070Z,3.79
2023-03-14T21:15:36.276Z,3.74
2023-03-14T21:18:05.746Z,3.76
2023-03-14T21:20:33.793Z,3.74
2023-03-14T21:23:01.308Z,3.71
2023-03-14T21:25:31.404Z,3.77
2023-03-14T21:27:58.779Z,3.78
2023-03-14T21:30:26.506Z,3.73
2023-03-14T21:32:54.045Z,3.70
2023-03-14T21:35:21.311Z,3.64
2023-03-14T21:37:48.661Z,3.62
2023-03-14T21:40:16.190Z,3.59
2023-03-14T21:42:44.989Z,3.59
2023-03-14T21:45:12.741Z,3.58
2023-03-14T21:47:40.347Z,3.59
2023-03-14T21:50:08.105Z,3.57
2023-03-14T21:52:35.325Z,3.62
2023-03-14T21:55:04.204Z,3.60
2023-03-14T21:57:31.743Z,3.62
2023-03-14T22:00:00.642Z,3.62
2023-03-14T22:02:28.093Z,3.67
2023-03-14T22:04:55.665Z,3.66
2023-03-14T22:07:23.018Z,3.65
2023-03-14T22:09:50.367Z,3.63
2023-03-14T22:12:19.658Z,3.69
2023-03-14T22:14:48.248Z,3.67
2023-03-14T22:17:16.988Z,3.67
2023-03-14T22:19:44.451Z,3.67
2023-03-14T22:22:12.177Z,3.64
2023-03-14T22:24:41.062Z,3.65
2023-03-14T22:27:08.720Z,3.64
2023-03-14T22:29:37.819Z,3.66
2023-03-14T22:32:06.013Z,3.63
2023-03-14T22:34:35.355Z,3.69
2023-03-14T22:37:04.841Z,3.65
2023-03-14T22:39:33.121Z,3.63
2023-03-14T22:42:01.217Z,3.69
2023-03-14T22:44:32.767Z,3.67
2023-03-14T22:47:01.258Z,3.63
2023-03-14T22:49:29.895Z,3.68
2023-03-14T22:51:58.641Z,3.68
2023-03-14T22:54:28.544Z,3.65
2023-03-14T22:56:56.095Z,3.63
2023-03-14T22:59:23.380Z,3.66
2023-03-14T23:01:50.808Z,3.66
2023-03-14T23:04:18.318Z,3.65
2023-03-14T23:06:45.683Z,3.73
2023-03-14T23:09:14.455Z,3.71
2023-03-14T23:11:41.864Z,3.75
2023-03-14T23:14:09.254Z,3.75
2023-03-14T23:16:40.690Z,3.79
2023-03-14T23:19:10.702Z,3.83
2023-03-14T23:21:38.042Z,3.87
2023-03-14T23:24:06.224Z,3.94
2023-03-14T23:26:35.907Z,3.90
2023-03-14T23:29:07.225Z,3.95
2023-03-14T23:31:34.865Z,3.93
2023-03-14T23:34:02.455Z,4.02
2023-03-14T23:36:29.970Z,3.99
2023-03-14T23:38:57.234Z,4.07
2023-03-14T23:41:24.388Z,4.07
2023-03-14T23:43:53.473Z,4.05
2023-03-14T23:46:21.880Z,4.05
2023-03-14T23:48:49.318Z,4.04
2023-03-14T23:51:17.275Z,4.02
2023-03-14T23:53:44.644Z,4.03
2023-03-14T23:56:13.680Z,4.02
2023-03-14T23:58:41.250Z,4.04
